Historique des stations

Station météo de Cudot

Altitude de la station : 171 m







Données météorologiques pour le 23/09/2021
Date
Heure
Températures Humidité Point de rosée Vitesse
du vent
Direction Rafales Windchill Pression Pluviométrie
Cumul
Date
Heure
Températures Humidité Point de rosée Vitesse
du vent
Direction Rafales Windchill Pression Pluviométrie
Cumul
23/09/2021 13:5921.5 °C52 %11.1 °C---21.7 1002 hPa0.2 mm
23/09/2021 13:4421.1 °C57 %12.2 °C---21.1 1002 hPa0.2 mm
23/09/2021 13:2920.7 °C59 %12.2 °C---20.6 1002 hPa0.2 mm
23/09/2021 13:1420.4 °C57 %11.7 °C---20.6 1002 hPa0.2 mm
23/09/2021 12:5920.1 °C57 %11.1 °C---20.0 1002 hPa0.2 mm
23/09/2021 12:4420.2 °C59 %11.7 °C---20.0 1002 hPa0.2 mm
23/09/2021 12:2920.2 °C67 %13.9 °C---20.0 1002 hPa0.2 mm
23/09/2021 12:1419.4 °C67 %13.3 °C---19.4 1002 hPa0.2 mm
23/09/2021 11:5919.1 °C69 %13.3 °C---18.9 1002 hPa0.2 mm
23/09/2021 11:4418.3 °C71 %12.8 °C---18.3 1002 hPa0.2 mm
23/09/2021 11:2917.9 °C72 %12.8 °C---17.8 1002 hPa0.2 mm
23/09/2021 11:1417.7 °C75 %13.3 °C---17.8 1003 hPa0.2 mm
23/09/2021 10:5916.9 °C77 %12.8 °C---17.2 1003 hPa0.2 mm
23/09/2021 10:4416.1 °C80 %12.8 °C---16.1 1003 hPa0.2 mm
23/09/2021 10:2915.0 °C82 %12.2 °C---15.0 1003 hPa0.2 mm
23/09/2021 10:1414.2 °C83 %11.7 °C---14.4 1003 hPa0.2 mm
23/09/2021 09:5913.6 °C84 %11.1 °C---13.3 1003 hPa0.2 mm
23/09/2021 09:4413.2 °C85 %10.6 °C---13.3 1002 hPa-
23/09/2021 09:2913.1 °C85 %10.6 °C---13.3 1002 hPa-
23/09/2021 09:1412.7 °C86 %10.6 °C---12.8 1002 hPa-
23/09/2021 08:5912.6 °C87 %10.6 °C---12.8 1002 hPa-
23/09/2021 08:4411.0 °C87 %8.9 °C---11.1 1002 hPa-
23/09/2021 08:2910.2 °C87 %8.3 °C---10.0 1002 hPa-
23/09/2021 08:148.3 °C87 %6.1 °C---8.3 1002 hPa-
23/09/2021 07:597.8 °C87 %5.6 °C---7.8 1002 hPa-
23/09/2021 07:447.2 °C87 %5.0 °C---7.2 1002 hPa-
23/09/2021 07:297.1 °C87 %5.0 °C---7.2 1002 hPa-
23/09/2021 07:147.2 °C87 %5.0 °C---7.2 1002 hPa-
23/09/2021 06:597.2 °C86 %5.0 °C---7.2 1002 hPa-
23/09/2021 06:447.4 °C86 %5.0 °C---7.2 1001 hPa-
23/09/2021 06:297.6 °C86 %5.6 °C---7.8 1002 hPa-
23/09/2021 06:147.7 °C86 %5.6 °C---7.8 1002 hPa-
23/09/2021 05:597.3 °C86 %5.0 °C---7.2 1002 hPa-
23/09/2021 05:457.2 °C86 %5.0 °C---7.2 1002 hPa-
23/09/2021 05:297.6 °C86 %5.6 °C---7.8 1002 hPa-
23/09/2021 05:147.6 °C86 %5.6 °C---7.8 1002 hPa-
23/09/2021 04:597.8 °C86 %5.6 °C---7.8 1002 hPa-
23/09/2021 04:448.1 °C86 %6.1 °C---8.3 1002 hPa-
23/09/2021 04:298.2 °C86 %6.1 °C---8.3 1002 hPa-
23/09/2021 04:148.1 °C86 %6.1 °C---8.3 1002 hPa-
23/09/2021 03:598.3 °C86 %6.1 °C---8.3 1003 hPa-
23/09/2021 03:448.9 °C86 %6.7 °C---8.9 1003 hPa-
23/09/2021 03:279.2 °C86 %7.2 °C---9.4 1003 hPa-
23/09/2021 03:149.2 °C86 %7.2 °C---9.4 1003 hPa-
23/09/2021 02:599.1 °C86 %6.7 °C---8.9 1003 hPa-
23/09/2021 02:449.1 °C86 %6.7 °C---8.9 1003 hPa-
23/09/2021 02:299.0 °C85 %6.7 °C---8.9 1003 hPa-
23/09/2021 02:149.3 °C85 %7.2 °C---9.4 1003 hPa-
23/09/2021 01:599.4 °C85 %7.2 °C---9.4 1003 hPa-
23/09/2021 01:449.5 °C85 %7.2 °C---9.4 1004 hPa-
23/09/2021 01:299.6 °C85 %7.2 °C---9.4 1004 hPa-
23/09/2021 01:149.6 °C85 %7.2 °C---9.4 1004 hPa-
23/09/2021 00:599.4 °C85 %7.2 °C---9.4 1004 hPa-
23/09/2021 00:449.8 °C85 %7.2 °C---10.0 1004 hPa-
23/09/2021 00:2910.3 °C85 %7.8 °C---10.6 1004 hPa-
23/09/2021 00:1410.7 °C85 %8.3 °C---10.6 1004 hPa-


Minima :

Température : 7.1 °C
Humidité : 52 %
Point de rosée : 5.0 °C
Vent moyen : - km/h
Windchill : 7.2
Pression atm. : 1001 hPa
Maxima :

Température : 21.5 °C
Humidité : 87 %
Point de rosée : 13.9 °C
Vent moyen : 0 km/h
Windchill : 21.7
Pression atm. : 1004 hPa
Rafales max : - km/h
Cumul de pluie sur 24H : 0.2 mm

Cudot est une commune du département Yonne (89).
La station météorologique du réseau de l'association la plus proche de Cudot est celle de Saint-Firmin-des-Bois
Site du propriétaire de la station : https://www.cudot-jml.fr//index.php



Icône Facebook Association Météo Centre Icône Twitter Association Météo Centre Icône Chaîne Youtube Association Météo Centre Icône contact Association Météo Centre Icône Insta Association Météo Centre